createdAt,value
2023-04-12T00:01:07.127Z,0
2023-04-12T00:06:13.325Z,0
2023-04-12T00:11:19.584Z,0
2023-04-12T00:16:25.844Z,0
2023-04-12T00:21:32.319Z,0
2023-04-12T00:26:38.792Z,0
2023-04-12T00:31:45.259Z,0
2023-04-12T00:36:51.763Z,0
2023-04-12T00:41:58.214Z,0
2023-04-12T00:47:04.671Z,0
2023-04-12T00:52:11.137Z,0
2023-04-12T00:57:17.598Z,0
2023-04-12T01:02:24.071Z,0
2023-04-12T01:07:30.562Z,0
2023-04-12T01:12:37.024Z,0
2023-04-12T01:17:43.496Z,0
2023-04-12T01:22:49.951Z,0
2023-04-12T01:27:56.973Z,0
2023-04-12T01:33:03.964Z,0
2023-04-12T01:38:10.970Z,0
2023-04-12T01:43:18.078Z,0
2023-04-12T01:48:24.982Z,0
2023-04-12T01:53:31.976Z,0
2023-04-12T01:58:38.997Z,0
2023-04-12T02:03:46.021Z,0
2023-04-12T02:08:53.004Z,0
2023-04-12T02:14:00.208Z,0
2023-04-12T02:19:07.000Z,0
2023-04-12T02:24:14.099Z,0
2023-04-12T02:29:21.015Z,0
2023-04-12T02:34:26.898Z,0
2023-04-12T02:39:32.947Z,0
2023-04-12T02:44:39.089Z,0
2023-04-12T02:49:45.241Z,0
2023-04-12T02:54:51.408Z,0
2023-04-12T02:59:57.537Z,0
2023-04-12T03:05:03.746Z,0
2023-04-12T03:10:09.847Z,0
2023-04-12T03:20:22.146Z,0
2023-04-12T03:25:28.323Z,0
2023-04-12T03:30:34.471Z,0
2023-04-12T03:35:40.597Z,0
2023-04-12T03:40:46.752Z,0
2023-04-12T03:45:51.926Z,0
2023-04-12T03:50:58.004Z,0
2023-04-12T03:56:04.173Z,0
2023-04-12T04:01:10.203Z,0
2023-04-12T04:06:16.332Z,0
2023-04-12T04:11:21.392Z,4
2023-04-12T04:16:27.457Z,4
2023-04-12T04:21:33.602Z,4
2023-04-12T04:26:39.637Z,8
2023-04-12T04:31:45.730Z,12
2023-04-12T04:36:51.821Z,20
2023-04-12T04:41:57.910Z,24
2023-04-12T04:47:04.004Z,28
2023-04-12T04:52:10.179Z,28
2023-04-12T04:57:16.173Z,32
2023-04-12T05:02:22.345Z,36
2023-04-12T05:07:28.381Z,36
2023-04-12T05:12:34.477Z,40
2023-04-12T05:17:40.536Z,44
2023-04-12T05:22:46.611Z,48
2023-04-12T05:27:52.737Z,48
2023-04-12T05:32:58.867Z,52
2023-04-12T05:38:04.877Z,56
2023-04-12T05:43:10.977Z,56
2023-04-12T05:48:17.090Z,60
2023-04-12T05:53:23.156Z,60
2023-04-12T05:58:29.242Z,64
2023-04-12T06:03:35.337Z,64
2023-04-12T06:08:41.446Z,68
2023-04-12T06:13:47.515Z,68
2023-04-12T06:18:53.706Z,72
2023-04-12T06:23:59.759Z,72
2023-04-12T06:29:05.852Z,72
2023-04-12T06:34:11.855Z,76
2023-04-12T06:39:17.941Z,76
2023-04-12T06:44:24.180Z,80
2023-04-12T06:49:30.216Z,80
2023-04-12T06:54:35.345Z,84
2023-04-12T06:59:41.329Z,84
2023-04-12T07:04:47.466Z,88
2023-04-12T07:09:53.669Z,96
2023-04-12T07:14:59.623Z,96
2023-04-12T07:20:05.804Z,96
2023-04-12T07:25:11.802Z,100
2023-04-12T07:30:17.877Z,104
2023-04-12T07:35:23.960Z,104
2023-04-12T07:40:30.055Z,108
2023-04-12T07:45:36.129Z,108
2023-04-12T07:50:42.234Z,112
2023-04-12T07:55:48.519Z,108
2023-04-12T08:00:54.485Z,112
2023-04-12T08:05:59.655Z,108
2023-04-12T08:11:05.612Z,112
2023-04-12T08:16:11.692Z,112
2023-04-12T08:21:17.774Z,116
2023-04-12T08:26:23.866Z,116
2023-04-12T08:31:29.957Z,120
2023-04-12T08:36:36.069Z,124
2023-04-12T08:41:42.162Z,124
2023-04-12T08:46:48.229Z,128
2023-04-12T08:51:54.358Z,132
2023-04-12T08:57:00.474Z,136
2023-04-12T09:02:06.506Z,140
2023-04-12T09:07:11.668Z,136
2023-04-12T09:12:17.733Z,136
2023-04-12T09:17:23.791Z,140
2023-04-12T09:22:29.873Z,140
2023-04-12T09:27:36.017Z,144
2023-04-12T09:32:42.126Z,144
2023-04-12T09:37:48.146Z,148
2023-04-12T09:42:54.347Z,152
2023-04-12T09:48:00.333Z,152
2023-04-12T09:53:06.567Z,152
2023-04-12T09:58:12.507Z,156
2023-04-12T10:03:18.585Z,160
2023-04-12T10:08:24.761Z,160
2023-04-12T10:13:30.809Z,160
2023-04-12T10:18:36.851Z,168
2023-04-12T10:23:42.947Z,184
2023-04-12T10:28:49.137Z,196
2023-04-12T10:33:55.113Z,204
2023-04-12T10:39:01.368Z,208
2023-04-12T10:44:07.298Z,204
2023-04-12T10:49:13.405Z,204
2023-04-12T10:54:19.467Z,208
2023-04-12T10:59:24.742Z,216
2023-04-12T11:04:30.682Z,224
2023-04-12T11:09:36.764Z,228
2023-04-12T11:14:42.857Z,232
2023-04-12T11:19:48.994Z,244
2023-04-12T11:24:55.060Z,244
2023-04-12T11:30:01.132Z,276
2023-04-12T11:35:07.228Z,316
2023-04-12T11:40:13.361Z,316
2023-04-12T11:45:19.405Z,380
2023-04-12T11:50:25.473Z,384
2023-04-12T11:55:31.565Z,312
2023-04-12T12:00:37.721Z,348
2023-04-12T12:05:43.822Z,340
2023-04-12T12:10:49.929Z,328
2023-04-12T12:15:56.133Z,360
2023-04-12T12:21:02.009Z,376
2023-04-12T12:26:09.118Z,392
2023-04-12T12:31:14.248Z,376
2023-04-12T12:36:20.285Z,312
2023-04-12T12:41:26.416Z,296
2023-04-12T12:46:32.460Z,296
2023-04-12T12:51:38.574Z,292
2023-04-12T12:56:44.666Z,284
2023-04-12T13:01:50.721Z,352
2023-04-12T13:06:56.877Z,440
2023-04-12T13:12:03.102Z,504
2023-04-12T13:17:09.324Z,556
2023-04-12T13:22:15.318Z,368
2023-04-12T13:27:21.472Z,268
2023-04-12T13:32:27.643Z,300
2023-04-12T13:37:33.880Z,300
2023-04-12T13:42:39.994Z,216
2023-04-12T13:47:46.087Z,200
2023-04-12T13:52:52.262Z,152
2023-04-12T13:57:58.394Z,136
2023-04-12T14:03:04.606Z,116
2023-04-12T14:08:10.726Z,92
2023-04-12T14:13:16.980Z,72
2023-04-12T14:18:23.210Z,80
2023-04-12T14:23:29.559Z,96
2023-04-12T14:28:35.758Z,88
2023-04-12T14:33:42.190Z,72
2023-04-12T14:38:48.409Z,72
2023-04-12T14:43:54.691Z,72
2023-04-12T14:49:00.944Z,68
2023-04-12T14:54:07.118Z,84
2023-04-12T14:59:13.316Z,92
2023-04-12T15:04:19.588Z,72
2023-04-12T15:09:25.866Z,60
2023-04-12T15:14:32.185Z,52
2023-04-12T15:19:38.710Z,48
2023-04-12T15:24:45.059Z,56
2023-04-12T15:29:51.607Z,56
2023-04-12T15:34:58.152Z,44
2023-04-12T15:40:04.473Z,56
2023-04-12T15:45:10.971Z,68
2023-04-12T15:50:17.411Z,88
2023-04-12T15:55:23.906Z,92
2023-04-12T16:00:30.415Z,52
2023-04-12T16:05:36.813Z,48
2023-04-12T16:10:43.325Z,80
2023-04-12T16:15:48.690Z,112
2023-04-12T16:20:54.889Z,116
2023-04-12T16:26:00.875Z,68
2023-04-12T16:31:05.974Z,60
2023-04-12T16:36:12.066Z,48
2023-04-12T16:41:18.143Z,44
2023-04-12T16:46:24.256Z,32
2023-04-12T16:51:30.484Z,28
2023-04-12T16:56:36.558Z,20
2023-04-12T17:01:42.540Z,20
2023-04-12T17:06:48.758Z,16
2023-04-12T17:11:54.866Z,12
2023-04-12T17:17:00.756Z,12
2023-04-12T17:22:06.971Z,8
2023-04-12T17:27:13.071Z,8
2023-04-12T17:32:19.113Z,8
2023-04-12T17:37:25.110Z,4
2023-04-12T17:42:31.211Z,4
2023-04-12T17:47:37.296Z,8
2023-04-12T17:52:43.390Z,4
2023-04-12T17:57:49.455Z,0
2023-04-12T18:02:55.570Z,0
2023-04-12T18:08:01.652Z,0
2023-04-12T18:13:07.741Z,0
2023-04-12T18:18:13.892Z,0
2023-04-12T18:23:19.986Z,0
2023-04-12T18:28:26.039Z,0
2023-04-12T18:33:32.102Z,0
2023-04-12T18:38:38.184Z,0
2023-04-12T18:43:44.274Z,0
2023-04-12T18:48:50.381Z,0
2023-04-12T18:53:56.454Z,0
2023-04-12T18:59:02.545Z,0
2023-04-12T19:04:08.629Z,0
2023-04-12T19:09:14.711Z,0
2023-04-12T19:14:20.808Z,0
2023-04-12T19:19:26.907Z,0
2023-04-12T19:24:32.984Z,0
2023-04-12T19:29:39.065Z,0
2023-04-12T19:34:45.164Z,0
2023-04-12T19:39:51.315Z,0
2023-04-12T19:44:57.534Z,0
2023-04-12T19:50:03.622Z,0
2023-04-12T19:55:09.761Z,0
2023-04-12T20:00:15.938Z,0
2023-04-12T20:05:22.073Z,0
2023-04-12T20:10:28.218Z,0
2023-04-12T20:15:34.365Z,0
2023-04-12T20:20:40.511Z,0
2023-04-12T20:25:46.666Z,0
2023-04-12T20:30:52.885Z,0
2023-04-12T20:35:58.971Z,0
2023-04-12T20:41:05.115Z,0
2023-04-12T20:46:11.387Z,0
2023-04-12T20:51:16.767Z,0
2023-04-12T20:56:23.037Z,0
2023-04-12T21:01:29.309Z,0
2023-04-12T21:06:35.562Z,0
2023-04-12T21:11:41.839Z,0
2023-04-12T21:16:48.100Z,0
2023-04-12T21:21:54.351Z,0
2023-04-12T21:27:00.615Z,0
2023-04-12T21:32:06.879Z,0
2023-04-12T21:37:13.153Z,0
2023-04-12T21:42:19.419Z,0
2023-04-12T21:47:24.645Z,0
2023-04-12T21:52:30.732Z,0
2023-04-12T21:57:36.844Z,0
2023-04-12T22:02:42.912Z,0
2023-04-12T22:07:49.009Z,0
2023-04-12T22:12:55.093Z,0
2023-04-12T22:18:01.184Z,0
2023-04-12T22:23:07.273Z,0
2023-04-12T22:28:13.357Z,0
2023-04-12T22:33:19.474Z,0
2023-04-12T22:38:25.537Z,0
2023-04-12T22:43:31.634Z,0
2023-04-12T22:48:36.723Z,0
2023-04-12T22:53:42.811Z,0
2023-04-12T22:58:48.897Z,0
2023-04-12T23:09:01.076Z,0
2023-04-12T23:14:07.182Z,0
2023-04-12T23:19:13.253Z,0
2023-04-12T23:24:19.347Z,0
2023-04-12T23:29:25.446Z,0
2023-04-12T23:34:31.527Z,0
2023-04-12T23:39:37.631Z,0
2023-04-12T23:44:43.697Z,0
2023-04-12T23:49:48.809Z,0
2023-04-12T23:54:54.919Z,0
